Portada
METAR-TAF:

METAR-TAF

Aeropuertos :

Kaolack, Senegal

latitud: 14-08N, longitud: 016-04W, altitud: 6 m

Observación

El informe se hizo hace 1 hora y 23 minutos, a las 00:00 UTC
Viento 4 kt del oeste
Temperatura 27°C
Humedad 79%
Presión 1012 hPa
Visibilidad: 8000 m

METAR: GOOK 220000Z 28004KT 8000 NSC 27/23 Q1012

Hora: 01:23 (01:23 UTC)


TAF: falta

Observaciones y pronósticos meteorológicos de más de 4000 aeropuertos (mensajes METAR y TAF).

Los puntos amarillos y rojos representan las estaciones disponibles.

Ponga el ratón en el punto deseado para ver el nombre de la estación.

Haga clic para ver las observaciones y los pronósticos meteorológicos.

Para cambiar el mapa : haga clic en los botones verdes con una cruz de color negro para hacer un zoom, en el botón verde con un guión para alejar o en las flechas verdes para mapas adyacentes.


METAR-TAF: